createdAt,value
2018-08-16T00:00:11.432Z,19.70
2018-08-16T00:02:39.782Z,19.60
2018-08-16T00:05:08.397Z,19.60
2018-08-16T00:07:36.834Z,19.70
2018-08-16T00:10:08.391Z,19.70
2018-08-16T00:12:36.780Z,19.70
2018-08-16T00:15:05.677Z,19.60
2018-08-16T00:17:34.076Z,19.60
2018-08-16T00:20:02.470Z,19.50
2018-08-16T00:22:30.858Z,19.40
2018-08-16T00:24:59.271Z,19.40
2018-08-16T00:27:27.683Z,19.40
2018-08-16T00:29:56.120Z,19.20
2018-08-16T00:32:24.984Z,19.20
2018-08-16T00:34:53.467Z,19.30
2018-08-16T00:37:21.949Z,19.30
2018-08-16T00:39:50.516Z,19.30
2018-08-16T00:42:19.101Z,19.00
2018-08-16T00:44:47.615Z,19.10
2018-08-16T00:47:16.075Z,19.10
2018-08-16T00:49:44.513Z,19.20
2018-08-16T00:52:12.886Z,19.10
2018-08-16T00:54:41.315Z,19.00
2018-08-16T00:57:09.659Z,18.90
2018-08-16T00:59:38.264Z,19.00
2018-08-16T01:02:06.888Z,19.10
2018-08-16T01:04:35.535Z,18.90
2018-08-16T01:07:03.956Z,19.00
2018-08-16T01:09:32.391Z,18.90
2018-08-16T01:12:01.672Z,18.90
2018-08-16T01:14:30.203Z,18.90
2018-08-16T01:16:58.615Z,18.70
2018-08-16T01:19:27.046Z,18.70
2018-08-16T01:21:55.429Z,18.60
2018-08-16T01:24:23.899Z,18.60
2018-08-16T01:26:52.483Z,18.50
2018-08-16T01:29:20.894Z,18.60
2018-08-16T01:31:49.490Z,18.70
2018-08-16T01:34:18.063Z,18.70
2018-08-16T01:36:46.800Z,18.70
2018-08-16T01:39:15.435Z,18.70
2018-08-16T01:41:43.837Z,18.70
2018-08-16T01:44:12.206Z,18.80
2018-08-16T01:46:40.627Z,18.70
2018-08-16T01:49:23.424Z,18.60
2018-08-16T01:51:51.933Z,18.50
2018-08-16T01:54:20.322Z,18.40
2018-08-16T01:56:48.686Z,18.40
2018-08-16T01:59:17.130Z,18.40
2018-08-16T02:01:45.650Z,18.40
2018-08-16T02:04:14.038Z,18.50
2018-08-16T02:06:42.522Z,18.50
2018-08-16T02:09:11.020Z,18.60
2018-08-16T02:11:39.629Z,18.60
2018-08-16T02:14:08.490Z,18.40
2018-08-16T02:16:53.696Z,18.40
2018-08-16T02:19:22.811Z,18.40
2018-08-16T02:21:52.051Z,18.40
2018-08-16T02:24:21.509Z,18.40
2018-08-16T02:26:50.765Z,18.40
2018-08-16T02:29:20.116Z,18.30
2018-08-16T02:31:49.434Z,18.30
2018-08-16T02:34:17.815Z,18.40
2018-08-16T02:36:46.193Z,18.40
2018-08-16T02:39:14.798Z,18.40
2018-08-16T02:41:43.234Z,18.40
2018-08-16T02:44:11.863Z,18.30
2018-08-16T02:46:40.340Z,18.20
2018-08-16T02:49:08.695Z,18.30
2018-08-16T02:51:37.210Z,18.40
2018-08-16T02:54:05.624Z,18.30
2018-08-16T02:56:34.005Z,18.20
2018-08-16T02:59:02.452Z,18.30
2018-08-16T03:01:30.866Z,18.40
2018-08-16T03:03:59.246Z,18.40
2018-08-16T03:06:27.703Z,18.30
2018-08-16T03:08:56.195Z,18.30
2018-08-16T03:11:24.591Z,18.40
2018-08-16T03:13:52.958Z,18.30
2018-08-16T03:16:21.334Z,18.40
2018-08-16T03:18:49.989Z,18.40
2018-08-16T03:21:18.405Z,18.40
2018-08-16T03:23:46.826Z,18.50
2018-08-16T03:26:15.228Z,18.40
2018-08-16T03:28:43.612Z,18.20
2018-08-16T03:31:12.013Z,18.20
2018-08-16T03:33:40.397Z,18.30
2018-08-16T03:36:08.811Z,18.40
2018-08-16T03:38:37.188Z,18.30
2018-08-16T03:41:05.709Z,18.50
2018-08-16T03:43:34.097Z,18.40
2018-08-16T03:46:02.608Z,18.40
2018-08-16T03:48:31.256Z,18.40
2018-08-16T03:50:59.643Z,18.40
2018-08-16T03:53:28.099Z,18.40
2018-08-16T03:55:56.492Z,18.50
2018-08-16T03:58:24.972Z,18.50
2018-08-16T04:00:53.426Z,18.50
2018-08-16T04:03:21.804Z,18.50
2018-08-16T04:05:50.177Z,18.40
2018-08-16T04:08:18.596Z,18.40
2018-08-16T04:10:47.202Z,18.50
2018-08-16T04:13:15.975Z,18.50
2018-08-16T04:15:44.451Z,18.50
2018-08-16T04:18:13.033Z,18.50
2018-08-16T04:20:41.462Z,18.50
2018-08-16T04:23:09.916Z,18.60
2018-08-16T04:25:38.258Z,18.60
2018-08-16T04:28:06.691Z,18.50
2018-08-16T04:30:35.165Z,18.50
2018-08-16T04:33:03.621Z,18.60
2018-08-16T04:35:32.047Z,18.70
2018-08-16T04:38:00.531Z,18.50
2018-08-16T04:40:29.000Z,18.60
2018-08-16T04:42:57.402Z,18.60
2018-08-16T04:45:25.835Z,18.70
2018-08-16T04:47:54.403Z,18.80
2018-08-16T04:50:22.826Z,18.90
2018-08-16T04:52:51.257Z,18.90
2018-08-16T04:55:21.059Z,18.90
2018-08-16T04:57:49.482Z,19.00
2018-08-16T05:00:17.849Z,18.90
2018-08-16T05:02:46.227Z,18.90
2018-08-16T05:05:14.655Z,18.90
2018-08-16T05:07:46.763Z,19.00
2018-08-16T05:10:15.265Z,19.10
2018-08-16T05:12:43.723Z,19.20
2018-08-16T05:15:13.278Z,19.40
2018-08-16T05:17:41.923Z,19.50
2018-08-16T05:20:12.890Z,19.60
2018-08-16T05:22:42.085Z,19.30
2018-08-16T05:25:10.475Z,19.20
2018-08-16T05:27:38.984Z,19.20
2018-08-16T05:30:09.736Z,19.30
2018-08-16T05:32:38.078Z,19.40
2018-08-16T05:35:06.722Z,19.40
2018-08-16T05:37:35.738Z,19.40
2018-08-16T05:40:05.210Z,19.60
2018-08-16T05:42:33.592Z,19.70
2018-08-16T05:45:02.191Z,19.90
2018-08-16T05:47:30.662Z,20.00
2018-08-16T05:49:59.062Z,20.00
2018-08-16T05:52:27.430Z,20.00
2018-08-16T05:54:55.852Z,20.10
2018-08-16T05:57:24.478Z,20.30
2018-08-16T05:59:52.927Z,20.40
2018-08-16T06:02:21.374Z,20.40
2018-08-16T06:04:49.925Z,20.50
2018-08-16T06:07:18.319Z,20.60
2018-08-16T06:09:47.615Z,20.60
2018-08-16T06:12:16.013Z,20.80
2018-08-16T06:14:44.565Z,20.80
2018-08-16T06:17:12.955Z,20.80
2018-08-16T06:19:41.439Z,21.00
2018-08-16T06:22:09.830Z,21.10
2018-08-16T06:24:38.177Z,21.20
2018-08-16T06:27:07.491Z,21.20
2018-08-16T06:29:35.921Z,21.30
2018-08-16T06:32:04.633Z,21.20
2018-08-16T06:34:33.163Z,21.30
2018-08-16T06:37:01.576Z,21.40
2018-08-16T06:39:30.082Z,21.60
2018-08-16T06:41:58.753Z,21.70
2018-08-16T06:44:27.205Z,21.80
2018-08-16T06:46:55.716Z,21.90
2018-08-16T06:49:24.329Z,22.10
2018-08-16T06:51:53.394Z,21.70
2018-08-16T06:54:21.841Z,21.80
2018-08-16T06:56:50.292Z,22.00
2018-08-16T06:59:18.868Z,22.20
2018-08-16T07:01:47.385Z,22.30
2018-08-16T07:04:15.885Z,22.60
2018-08-16T07:06:44.286Z,22.40
2018-08-16T07:09:12.942Z,22.30
2018-08-16T07:11:42.302Z,22.50
2018-08-16T07:14:10.884Z,22.40
2018-08-16T07:16:39.307Z,22.60
2018-08-16T07:19:07.691Z,22.50
2018-08-16T07:21:36.313Z,22.50
2018-08-16T07:24:04.806Z,22.70
2018-08-16T07:26:33.300Z,22.60
2018-08-16T07:29:01.705Z,22.80
2018-08-16T07:31:30.357Z,23.00
2018-08-16T07:33:59.147Z,23.10
2018-08-16T07:36:27.542Z,23.20
2018-08-16T07:38:56.348Z,23.20
2018-08-16T07:41:25.431Z,23.30
2018-08-16T07:43:53.886Z,23.40
2018-08-16T07:46:22.426Z,23.40
2018-08-16T07:48:50.987Z,23.60
2018-08-16T07:51:19.593Z,23.70
2018-08-16T07:53:48.048Z,23.70
2018-08-16T07:56:16.498Z,23.90
2018-08-16T07:58:44.915Z,24.00
2018-08-16T08:01:13.569Z,24.10
2018-08-16T08:03:42.079Z,24.10
2018-08-16T08:06:10.559Z,24.20
2018-08-16T08:08:39.033Z,24.10
2018-08-16T08:11:07.516Z,24.10
2018-08-16T08:13:35.963Z,24.10
2018-08-16T08:16:04.363Z,24.10
2018-08-16T08:18:32.874Z,24.20
2018-08-16T08:21:01.328Z,24.30
2018-08-16T08:23:29.796Z,24.20
2018-08-16T08:25:58.297Z,24.30
2018-08-16T08:28:26.836Z,24.30
2018-08-16T08:30:55.453Z,24.30
2018-08-16T08:33:24.035Z,24.40
2018-08-16T08:36:04.022Z,24.40
2018-08-16T08:38:32.454Z,24.50
2018-08-16T08:41:00.905Z,24.50
2018-08-16T08:44:42.643Z,24.50
2018-08-16T08:47:11.100Z,24.50
2018-08-16T08:49:39.875Z,24.60
2018-08-16T08:52:08.428Z,24.70
2018-08-16T08:54:50.315Z,24.70
2018-08-16T08:57:30.475Z,24.90
2018-08-16T08:59:58.942Z,24.90
2018-08-16T09:02:27.374Z,24.80
2018-08-16T09:04:56.007Z,24.70
2018-08-16T09:07:24.921Z,24.80
2018-08-16T09:11:21.017Z,24.90
2018-08-16T09:14:02.419Z,24.80
2018-08-16T09:16:33.866Z,24.80
2018-08-16T09:19:02.756Z,24.80
2018-08-16T09:21:31.772Z,24.80
2018-08-16T09:24:00.270Z,24.70
2018-08-16T09:26:34.077Z,24.60
2018-08-16T09:29:02.617Z,25.00
2018-08-16T09:31:42.474Z,25.00
2018-08-16T09:34:19.932Z,24.90
2018-08-16T09:36:48.596Z,25.00
2018-08-16T09:39:17.556Z,24.90
2018-08-16T09:41:46.123Z,24.90
2018-08-16T09:44:14.584Z,24.90
2018-08-16T09:47:12.981Z,24.90
2018-08-16T09:49:48.363Z,24.90
2018-08-16T09:52:17.185Z,25.00
2018-08-16T09:54:45.633Z,25.10
2018-08-16T09:57:14.754Z,25.00
2018-08-16T09:59:43.495Z,25.00
2018-08-16T10:02:15.357Z,25.10
2018-08-16T10:04:43.733Z,25.10
2018-08-16T10:07:12.127Z,25.10
2018-08-16T10:09:40.516Z,25.40
2018-08-16T10:12:08.912Z,25.30
2018-08-16T10:14:37.311Z,25.40
2018-08-16T10:17:05.761Z,25.40
2018-08-16T10:19:34.134Z,25.60
2018-08-16T10:22:02.572Z,25.70
2018-08-16T10:24:30.925Z,25.90
2018-08-16T10:26:59.432Z,25.80
2018-08-16T10:29:27.845Z,25.90
2018-08-16T10:31:56.338Z,25.90
2018-08-16T10:34:24.784Z,26.40
2018-08-16T10:36:53.180Z,26.30
2018-08-16T10:39:21.623Z,26.20
2018-08-16T10:41:50.030Z,26.10
2018-08-16T10:44:18.756Z,26.00
2018-08-16T10:46:47.399Z,26.00
2018-08-16T10:49:15.975Z,25.90
2018-08-16T10:51:44.421Z,26.10
2018-08-16T10:54:12.906Z,26.20
2018-08-16T10:56:41.320Z,26.20
2018-08-16T10:59:09.759Z,26.10
2018-08-16T11:01:38.288Z,26.10
2018-08-16T11:04:06.672Z,26.00
2018-08-16T11:06:35.084Z,26.10
2018-08-16T11:09:05.184Z,25.90
2018-08-16T11:11:33.673Z,26.50
2018-08-16T11:14:02.071Z,26.50
2018-08-16T11:16:30.478Z,26.70
2018-08-16T11:18:59.176Z,26.40
2018-08-16T11:21:27.520Z,26.20
2018-08-16T11:23:55.905Z,26.10
2018-08-16T11:26:24.299Z,26.10
2018-08-16T11:28:52.787Z,26.20
2018-08-16T11:31:21.412Z,26.30
2018-08-16T11:33:49.820Z,26.40
2018-08-16T11:36:18.286Z,26.50
2018-08-16T11:38:46.669Z,26.40
2018-08-16T11:41:15.083Z,26.50
2018-08-16T11:43:43.505Z,26.50
2018-08-16T11:46:11.920Z,26.50
2018-08-16T11:48:40.314Z,26.60
2018-08-16T11:51:08.982Z,26.50
2018-08-16T11:53:37.386Z,26.80
2018-08-16T11:56:05.803Z,26.90
2018-08-16T11:58:34.313Z,27.20
2018-08-16T12:01:02.803Z,27.30
2018-08-16T12:03:31.362Z,27.10
2018-08-16T12:05:59.790Z,26.90
2018-08-16T12:08:28.199Z,26.70
2018-08-16T12:10:56.596Z,26.80
2018-08-16T12:13:25.281Z,26.70
2018-08-16T12:15:53.712Z,26.70
2018-08-16T12:18:22.191Z,26.80
2018-08-16T12:20:50.657Z,26.70
2018-08-16T12:23:19.035Z,26.60
2018-08-16T12:25:47.512Z,26.60
2018-08-16T12:28:15.869Z,26.70
2018-08-16T12:30:44.347Z,26.70
2018-08-16T12:33:12.817Z,27.00
2018-08-16T12:35:41.288Z,26.80
2018-08-16T12:38:12.368Z,26.70
2018-08-16T12:40:41.601Z,26.60
2018-08-16T12:43:11.362Z,26.60
2018-08-16T12:45:39.714Z,26.90
2018-08-16T12:48:08.887Z,26.90
2018-08-16T12:50:37.289Z,27.10
2018-08-16T12:53:05.901Z,27.00
2018-08-16T12:55:34.414Z,27.20
2018-08-16T12:58:02.844Z,27.10
2018-08-16T13:00:31.449Z,26.90
2018-08-16T13:02:59.871Z,27.00
2018-08-16T13:05:28.252Z,27.30
2018-08-16T13:07:56.770Z,27.20
2018-08-16T13:10:25.270Z,27.20
2018-08-16T13:12:53.817Z,27.20
2018-08-16T13:15:22.340Z,27.10
2018-08-16T13:17:50.754Z,27.10
2018-08-16T13:20:19.151Z,27.00
2018-08-16T13:22:47.563Z,27.00
2018-08-16T13:25:16.374Z,27.10
2018-08-16T13:27:44.984Z,27.00
2018-08-16T13:30:13.374Z,27.00
2018-08-16T13:32:41.770Z,27.30
2018-08-16T13:35:10.114Z,27.20
2018-08-16T13:37:38.493Z,27.40
2018-08-16T13:40:08.072Z,27.70
2018-08-16T13:42:36.508Z,27.50
2018-08-16T13:45:05.228Z,27.70
2018-08-16T13:47:33.646Z,27.80
2018-08-16T13:50:02.181Z,27.60
2018-08-16T13:52:30.563Z,27.50
2018-08-16T13:54:58.966Z,27.30
2018-08-16T13:57:27.342Z,27.20
2018-08-16T13:59:55.856Z,27.00
2018-08-16T14:02:24.247Z,26.90
2018-08-16T14:04:52.790Z,27.20
2018-08-16T14:07:21.213Z,27.10
2018-08-16T14:09:49.631Z,27.20
2018-08-16T14:12:17.978Z,27.20
2018-08-16T14:14:46.614Z,27.20
2018-08-16T14:17:15.063Z,27.50
2018-08-16T14:19:43.680Z,27.60
2018-08-16T14:22:12.162Z,27.70
2018-08-16T14:24:40.643Z,27.60
2018-08-16T14:27:09.051Z,27.40
2018-08-16T14:29:37.631Z,27.40
2018-08-16T14:32:06.310Z,27.40
2018-08-16T14:34:34.767Z,27.40
2018-08-16T14:37:03.746Z,27.30
2018-08-16T14:39:32.136Z,27.20
2018-08-16T14:42:00.703Z,27.20
2018-08-16T14:44:29.086Z,27.40
2018-08-16T14:46:57.528Z,27.20
2018-08-16T14:49:25.966Z,27.20
2018-08-16T14:51:54.511Z,27.30
2018-08-16T14:54:22.926Z,27.40
2018-08-16T14:56:51.525Z,27.40
2018-08-16T14:59:19.923Z,27.30
2018-08-16T15:01:48.382Z,27.20
2018-08-16T15:04:16.975Z,27.20
2018-08-16T15:06:45.363Z,27.20
2018-08-16T15:09:13.744Z,27.30
2018-08-16T15:11:42.211Z,27.40
2018-08-16T15:14:10.558Z,27.30
2018-08-16T15:16:39.071Z,27.30
2018-08-16T15:19:07.561Z,27.40
2018-08-16T15:21:36.079Z,27.30
2018-08-16T15:24:04.782Z,27.50
2018-08-16T15:26:33.138Z,27.30
2018-08-16T15:29:01.536Z,27.50
2018-08-16T15:31:29.975Z,27.60
2018-08-16T15:33:58.409Z,27.60
2018-08-16T15:36:26.794Z,27.50
2018-08-16T15:38:55.221Z,27.40
2018-08-16T15:41:23.647Z,27.30
2018-08-16T15:43:52.168Z,27.50
2018-08-16T15:48:55.470Z,27.60
2018-08-16T15:51:23.899Z,27.50
2018-08-16T15:53:52.313Z,27.50
2018-08-16T15:56:20.925Z,27.50
2018-08-16T15:58:49.411Z,27.50
2018-08-16T16:01:18.127Z,27.50
2018-08-16T16:03:46.599Z,27.50
2018-08-16T16:06:15.089Z,27.50
2018-08-16T16:08:43.500Z,27.50
2018-08-16T16:11:11.887Z,27.50
2018-08-16T16:13:40.595Z,27.40
2018-08-16T16:16:09.010Z,27.30
2018-08-16T16:18:37.450Z,27.50
2018-08-16T16:21:05.858Z,27.50
2018-08-16T16:23:34.242Z,27.50
2018-08-16T16:26:02.691Z,27.40
2018-08-16T16:28:31.210Z,27.40
2018-08-16T16:30:59.660Z,27.50
2018-08-16T16:33:28.242Z,27.50
2018-08-16T16:35:56.668Z,27.40
2018-08-16T16:38:25.189Z,27.30
2018-08-16T16:40:53.465Z,27.40
2018-08-16T16:43:21.855Z,27.40
2018-08-16T16:45:50.373Z,27.30
2018-08-16T16:48:18.830Z,27.30
2018-08-16T16:50:52.211Z,27.30
2018-08-16T16:53:20.595Z,27.20
2018-08-16T16:55:50.255Z,27.20
2018-08-16T16:58:18.659Z,27.20
2018-08-16T17:00:47.047Z,27.20
2018-08-16T17:03:15.513Z,27.20
2018-08-16T17:05:43.891Z,27.30
2018-08-16T17:08:12.503Z,27.30
2018-08-16T17:10:41.464Z,27.30
2018-08-16T17:13:09.895Z,27.20
2018-08-16T17:15:38.271Z,27.20
2018-08-16T17:18:06.737Z,27.20
2018-08-16T17:20:35.133Z,27.20
2018-08-16T17:23:04.037Z,27.20
2018-08-16T17:25:32.534Z,27.10
2018-08-16T17:28:01.087Z,27.10
2018-08-16T17:30:29.485Z,27.10
2018-08-16T17:32:57.915Z,27.00
2018-08-16T17:35:26.326Z,27.10
2018-08-16T17:37:54.753Z,27.00
2018-08-16T17:40:23.138Z,26.90
2018-08-16T17:42:51.469Z,26.90
2018-08-16T17:45:19.837Z,26.90
2018-08-16T17:47:48.426Z,26.90
2018-08-16T17:50:17.267Z,26.80
2018-08-16T17:52:45.694Z,26.80
2018-08-16T17:55:14.308Z,26.80
2018-08-16T17:57:42.759Z,26.70
2018-08-16T18:00:11.953Z,26.70
2018-08-16T18:02:42.848Z,26.70
2018-08-16T18:05:11.308Z,26.60
2018-08-16T18:07:39.731Z,26.70
2018-08-16T18:10:08.960Z,26.60
2018-08-16T18:12:37.363Z,26.60
2018-08-16T18:15:08.012Z,26.60
2018-08-16T18:17:36.456Z,26.50
2018-08-16T18:20:05.431Z,26.50
2018-08-16T18:22:34.037Z,26.40
2018-08-16T18:25:02.615Z,26.40
2018-08-16T18:27:31.002Z,26.30
2018-08-16T18:29:59.585Z,26.20
2018-08-16T18:32:28.064Z,26.10
2018-08-16T18:34:56.645Z,26.00
2018-08-16T18:37:25.259Z,25.90
2018-08-16T18:39:53.695Z,25.90
2018-08-16T18:42:22.118Z,25.90
2018-08-16T18:44:50.867Z,25.80
2018-08-16T18:47:19.528Z,25.80
2018-08-16T18:49:48.032Z,25.80
2018-08-16T18:52:16.807Z,25.80
2018-08-16T18:54:45.217Z,25.70
2018-08-16T18:57:13.754Z,25.70
2018-08-16T18:59:42.995Z,25.70
2018-08-16T19:02:11.434Z,25.60
2018-08-16T19:04:40.281Z,25.60
2018-08-16T19:07:08.846Z,25.50
2018-08-16T19:09:38.943Z,25.50
2018-08-16T19:12:07.643Z,25.40
2018-08-16T19:14:37.698Z,25.40
2018-08-16T19:17:06.106Z,25.30
2018-08-16T19:19:34.642Z,25.20
2018-08-16T19:22:03.287Z,25.20
2018-08-16T19:24:31.797Z,25.10
2018-08-16T19:27:06.880Z,25.10
2018-08-16T19:29:36.298Z,25.00
2018-08-16T19:32:05.231Z,24.90
2018-08-16T19:34:35.976Z,24.90
2018-08-16T19:37:04.601Z,24.80
2018-08-16T19:39:33.110Z,24.70
2018-08-16T19:42:02.268Z,24.70
2018-08-16T19:44:30.746Z,24.60
2018-08-16T19:46:59.324Z,24.60
2018-08-16T19:49:27.722Z,24.50
2018-08-16T19:51:56.452Z,24.50
2018-08-16T19:54:27.561Z,24.50
2018-08-16T19:57:01.826Z,24.40
2018-08-16T19:59:31.145Z,24.40
2018-08-16T20:02:00.428Z,24.30
2018-08-16T20:04:29.911Z,24.30
2018-08-16T20:06:59.103Z,24.30
2018-08-16T20:09:29.035Z,24.20
2018-08-16T20:11:58.502Z,24.20
2018-08-16T20:14:27.689Z,24.10
2018-08-16T20:16:56.955Z,24.10
2018-08-16T20:19:26.390Z,24.00
2018-08-16T20:21:55.701Z,24.00
2018-08-16T20:24:25.168Z,24.00
2018-08-16T20:26:54.233Z,23.90
2018-08-16T20:29:23.946Z,23.90
2018-08-16T20:31:53.426Z,23.90
2018-08-16T20:34:22.633Z,23.80
2018-08-16T20:36:52.048Z,23.80
2018-08-16T20:39:21.390Z,23.80
2018-08-16T20:41:50.632Z,23.80
2018-08-16T20:44:19.946Z,23.70
2018-08-16T20:46:49.332Z,23.70
2018-08-16T20:49:17.846Z,23.70
2018-08-16T20:51:46.366Z,23.60
2018-08-16T20:54:14.821Z,23.60
2018-08-16T20:56:43.253Z,23.50
2018-08-16T20:59:11.829Z,23.50
2018-08-16T21:01:40.238Z,23.40
2018-08-16T21:04:08.714Z,23.30
2018-08-16T21:06:37.545Z,23.30
2018-08-16T21:09:07.308Z,23.40
2018-08-16T21:11:36.045Z,23.30
2018-08-16T21:14:05.449Z,23.20
2018-08-16T21:16:33.924Z,23.20
2018-08-16T21:19:02.631Z,23.20
2018-08-16T21:21:31.066Z,23.20
2018-08-16T21:23:59.534Z,23.10
2018-08-16T21:26:27.963Z,23.10
2018-08-16T21:28:56.510Z,23.00
2018-08-16T21:31:25.030Z,23.00
2018-08-16T21:33:53.410Z,22.90
2018-08-16T21:36:21.816Z,22.90
2018-08-16T21:38:50.243Z,22.90
2018-08-16T21:41:18.642Z,22.90
2018-08-16T21:43:47.070Z,22.80
2018-08-16T21:46:15.533Z,22.80
2018-08-16T21:48:43.933Z,22.80
2018-08-16T21:51:12.309Z,22.80
2018-08-16T21:53:40.708Z,22.80
2018-08-16T21:56:09.082Z,22.80
2018-08-16T21:58:37.526Z,22.80
2018-08-16T22:01:07.114Z,22.70
2018-08-16T22:03:35.492Z,22.70
2018-08-16T22:06:10.689Z,22.70
2018-08-16T22:08:41.689Z,22.70
2018-08-16T22:11:10.301Z,22.60
2018-08-16T22:13:38.992Z,22.60
2018-08-16T22:16:07.419Z,22.60
2018-08-16T22:18:36.171Z,22.60
2018-08-16T22:21:04.693Z,22.60
2018-08-16T22:23:33.087Z,22.60
2018-08-16T22:26:01.506Z,22.60
2018-08-16T22:28:29.880Z,22.60
2018-08-16T22:30:58.726Z,22.60
2018-08-16T22:33:27.237Z,22.50
2018-08-16T22:35:55.647Z,22.50
2018-08-16T22:38:24.025Z,22.50
2018-08-16T22:40:52.426Z,22.40
2018-08-16T22:43:20.915Z,22.40
2018-08-16T22:45:49.298Z,22.40
2018-08-16T22:48:17.872Z,22.40
2018-08-16T22:50:46.317Z,22.40
2018-08-16T22:53:14.750Z,22.30
2018-08-16T22:55:43.159Z,22.30
2018-08-16T22:58:11.712Z,22.30
2018-08-16T23:00:40.297Z,22.30
2018-08-16T23:03:08.721Z,22.20
2018-08-16T23:05:37.099Z,22.20
2018-08-16T23:08:05.474Z,22.10
2018-08-16T23:10:33.817Z,22.20
2018-08-16T23:13:02.179Z,22.10
2018-08-16T23:15:30.553Z,22.10
2018-08-16T23:17:59.150Z,22.10
2018-08-16T23:20:27.541Z,22.10
2018-08-16T23:22:55.959Z,21.90
2018-08-16T23:25:24.412Z,21.90
2018-08-16T23:27:52.981Z,21.90
2018-08-16T23:30:21.370Z,21.90
2018-08-16T23:32:49.866Z,21.90
2018-08-16T23:35:18.433Z,21.90
2018-08-16T23:37:46.928Z,21.90
2018-08-16T23:40:15.334Z,21.80
2018-08-16T23:42:43.702Z,21.80
2018-08-16T23:45:12.395Z,21.80
2018-08-16T23:47:40.790Z,21.80
2018-08-16T23:50:11.397Z,21.70
2018-08-16T23:52:39.794Z,21.70
2018-08-16T23:55:09.082Z,21.70
2018-08-16T23:57:37.626Z,21.70
